Time;durP1;ratioP1;P1;durP2;ratioP2;P2;SDS_P1;SDS_P2;PMS_P1;PMS_P2;Temp;Humidity;BMP_temperature;BMP_pressure;BME280_temperature;BME280_humidity;BME280_pressure;Samples;Min_cycle;Max_cycle;Signal;HPM_P1;HPM_P2
2023/01/19 00:01:45;;;;;;;;;;;-2.20;99.90;;;;;;5127300;28;19920;-70
2023/01/19 00:04:12;;;;;;;;;;;-2.20;99.90;;;;;;5126562;28;19981;-70
2023/01/19 00:06:39;;;;;;;;;;;-2.20;99.90;;;;;;5126014;28;19983;-68
2023/01/19 00:09:05;;;;;;;;;;;-2.20;99.90;;;;;;5127288;28;19987;-69
2023/01/19 00:11:32;;;;;;;;;;;-2.20;99.90;;;;;;5126651;28;19919;-70
2023/01/19 00:13:58;;;;;;;;;;;-2.20;99.90;;;;;;5126919;28;19983;-69
2023/01/19 00:16:26;;;;;;;;;;;-2.20;99.90;;;;;;5125909;28;19983;-70
2023/01/19 00:18:54;;;;;;;;;;;-2.20;99.90;;;;;;5127076;28;19990;-70
2023/01/19 00:21:21;;;;;;;;;;;-2.20;99.90;;;;;;5126870;28;19927;-70
2023/01/19 00:23:49;;;;;;;;;;;-2.20;99.90;;;;;;5126468;28;20204;-69
2023/01/19 00:26:16;;;;;;;;;;;-2.20;99.90;;;;;;5126262;28;20158;-70
2023/01/19 00:28:43;;;;;;;;;;;-2.30;99.90;;;;;;5126784;28;20208;-70
2023/01/19 00:31:09;;;;;;;;;;;-2.30;99.90;;;;;;5126592;28;19928;-69
2023/01/19 00:33:37;;;;;;;;;;;-2.30;99.90;;;;;;5126705;28;19920;-70
2023/01/19 00:36:04;;;;;;;;;;;-2.40;99.90;;;;;;5126218;28;19920;-69
2023/01/19 00:38:31;;;;;;;;;;;-2.40;99.90;;;;;;5126378;28;19962;-70
2023/01/19 00:40:57;;;;;;;;;;;-2.40;99.90;;;;;;5126261;28;19983;-70
2023/01/19 00:43:23;;;;;;;;;;;-2.50;99.90;;;;;;5126524;28;19983;-70
2023/01/19 00:45:50;;;;;;;;;;;-2.50;99.90;;;;;;5125868;28;20215;-70
2023/01/19 00:48:16;;;;;;;;;;;-2.60;99.90;;;;;;5125852;28;19920;-70
2023/01/19 00:50:44;;;;;;;;;;;-2.60;99.90;;;;;;5126408;28;19966;-70
2023/01/19 00:53:11;;;;;;;;;;;-2.60;99.90;;;;;;5126233;28;19927;-70
2023/01/19 00:55:38;;;;;;;;;;;-2.60;99.90;;;;;;5126080;28;19999;-70
2023/01/19 00:58:06;;;;;;;;;;;-2.60;99.90;;;;;;5125492;28;19987;-69
2023/01/19 01:00:32;;;;;;;;;;;-2.60;99.90;;;;;;5125871;28;20112;-70
2023/01/19 01:03:00;;;;;;;;;;;-2.60;99.90;;;;;;5105343;28;19987;-70
2023/01/19 01:05:26;;;;;;;;;;;-2.60;99.90;;;;;;5105170;28;19987;-69
2023/01/19 01:07:54;;;;;;;;;;;-2.50;99.90;;;;;;5104721;28;19932;-70
2023/01/19 01:10:22;;;;;;;;;;;-2.60;99.90;;;;;;5105520;28;19920;-69
2023/01/19 01:12:49;;;;;;;;;;;-2.50;99.90;;;;;;5105315;28;19920;-70
2023/01/19 01:15:16;;;;;;;;;;;-2.50;99.90;;;;;;5105076;28;19920;-70
2023/01/19 01:17:46;;;;;;;;;;;-2.50;99.90;;;;;;5104142;28;19987;-70
2023/01/19 01:20:16;;;;;;;;;;;-2.50;99.90;;;;;;5105203;28;19920;-69
2023/01/19 01:22:45;;;;;;;;;;;-2.60;99.90;;;;;;5105305;28;19920;-71
2023/01/19 01:25:13;;;;;;;;;;;-2.50;99.90;;;;;;5105357;28;19920;-70
2023/01/19 01:27:40;;;;;;;;;;;-2.50;99.90;;;;;;5104417;28;20119;-69
2023/01/19 01:30:08;;;;;;;;;;;-2.50;99.90;;;;;;5105278;28;19926;-70
2023/01/19 01:32:34;;;;;;;;;;;-2.40;99.90;;;;;;5104800;28;20119;-70
2023/01/19 01:35:01;;;;;;;;;;;-2.50;99.90;;;;;;5105044;28;20269;-70
2023/01/19 01:37:28;;;;;;;;;;;-2.50;99.90;;;;;;5104156;28;19978;-70
2023/01/19 01:39:54;;;;;;;;;;;-2.50;99.90;;;;;;5104870;28;19959;-70
2023/01/19 01:42:26;;;;;;;;;;;-2.50;99.90;;;;;;5104680;28;20232;-70
2023/01/19 01:44:53;;;;;;;;;;;-2.50;99.90;;;;;;5104941;28;19927;-70
2023/01/19 01:47:23;;;;;;;;;;;-2.50;99.90;;;;;;5104267;28;20115;-69
2023/01/19 01:49:51;;;;;;;;;;;-2.50;99.90;;;;;;5104826;28;19928;-70
2023/01/19 01:52:18;;;;;;;;;;;-2.60;99.90;;;;;;5104515;28;19924;-69
2023/01/19 01:54:45;;;;;;;;;;;-2.60;99.90;;;;;;5104718;28;19927;-70
2023/01/19 01:57:12;;;;;;;;;;;-2.60;99.90;;;;;;5104136;28;19927;-70
2023/01/19 01:59:41;;;;;;;;;;;-2.60;99.90;;;;;;5104483;28;19955;-70
2023/01/19 02:04:57;;;;;;;;;;;-2.70;99.90;;;;;;5124816;28;19994;-70
2023/01/19 02:15:40;;;;;;;;;;;-2.70;99.90;;;;;;5126077;28;19923;-70
2023/01/19 02:18:07;;;;;;;;;;;-2.70;99.90;;;;;;5127674;28;19991;-70
2023/01/19 02:20:36;;;;;;;;;;;-2.70;99.90;;;;;;5120435;28;19987;-70
2023/01/19 02:23:04;;;;;;;;;;;-2.80;99.90;;;;;;5107570;28;19924;-69
2023/01/19 02:25:32;;;;;;;;;;;-2.80;99.90;;;;;;5103611;28;19987;-70
2023/01/19 02:27:59;;;;;;;;;;;-2.90;99.90;;;;;;5103200;28;20131;-70
2023/01/19 02:30:26;;;;;;;;;;;-2.80;99.90;;;;;;5103972;28;19991;-70
2023/01/19 02:32:53;;;;;;;;;;;-2.90;99.90;;;;;;5104119;28;19920;-70
2023/01/19 02:35:20;;;;;;;;;;;-3.00;99.90;;;;;;5103829;28;20191;-70
2023/01/19 02:37:47;;;;;;;;;;;-3.00;99.90;;;;;;5103301;28;19920;-70
2023/01/19 02:40:18;;;;;;;;;;;-3.00;99.90;;;;;;5104117;28;20155;-70
2023/01/19 02:42:48;;;;;;;;;;;-3.00;99.90;;;;;;5103870;28;20045;-70
2023/01/19 02:45:17;;;;;;;;;;;-3.00;99.90;;;;;;5103750;28;19926;-70
2023/01/19 02:47:45;;;;;;;;;;;-3.00;99.90;;;;;;5103600;28;19927;-70
2023/01/19 02:50:43;;;;;;;;;;;-3.00;99.90;;;;;;5103865;28;19979;-70
2023/01/19 02:53:14;;;;;;;;;;;-3.00;99.90;;;;;;5041522;28;20136;-70
2023/01/19 02:55:42;;;;;;;;;;;-3.00;99.90;;;;;;5091274;28;19920;-70
2023/01/19 02:58:12;;;;;;;;;;;-3.00;99.90;;;;;;5103676;28;19955;-70
2023/01/19 03:00:42;;;;;;;;;;;-3.00;99.90;;;;;;5103842;28;20181;-70
2023/01/19 03:03:15;;;;;;;;;;;-3.10;99.90;;;;;;5103559;28;19920;-70
2023/01/19 03:05:50;;;;;;;;;;;-3.20;99.90;;;;;;5103354;28;20226;-69
2023/01/19 03:08:22;;;;;;;;;;;-3.30;99.90;;;;;;5103308;28;19920;-70
2023/01/19 03:10:52;;;;;;;;;;;-3.30;99.90;;;;;;5103744;28;19927;-70
2023/01/19 03:13:23;;;;;;;;;;;-3.40;99.90;;;;;;5103615;28;20230;-70
2023/01/19 03:15:53;;;;;;;;;;;-3.40;99.90;;;;;;5103294;28;19989;-70
2023/01/19 03:18:20;;;;;;;;;;;-3.40;99.90;;;;;;5103264;28;19927;-70
2023/01/19 03:20:49;;;;;;;;;;;-3.40;99.90;;;;;;5103964;28;19920;-70
2023/01/19 03:23:17;;;;;;;;;;;-3.40;99.90;;;;;;5103552;28;19983;-70
2023/01/19 03:25:44;;;;;;;;;;;-3.40;99.90;;;;;;5121741;28;19928;-70
2023/01/19 03:28:11;;;;;;;;;;;-3.40;99.90;;;;;;5123359;28;19919;-70
2023/01/19 03:30:44;;;;;;;;;;;-3.40;99.90;;;;;;5124041;28;19919;-70
2023/01/19 03:33:13;;;;;;;;;;;-3.40;99.90;;;;;;5123925;28;19927;-70
2023/01/19 03:35:40;;;;;;;;;;;-3.30;99.90;;;;;;5123486;28;19982;-70
2023/01/19 03:38:09;;;;;;;;;;;-3.30;99.90;;;;;;5123236;28;19926;-70
2023/01/19 03:40:36;;;;;;;;;;;-3.30;99.90;;;;;;5125073;28;19987;-70
2023/01/19 03:43:03;;;;;;;;;;;-3.30;99.90;;;;;;5127693;28;19920;-69
2023/01/19 03:45:31;;;;;;;;;;;-3.30;99.90;;;;;;5127649;28;19920;-70
2023/01/19 03:47:59;;;;;;;;;;;-3.30;99.90;;;;;;5126722;28;19944;-70
2023/01/19 03:50:28;;;;;;;;;;;-3.30;99.90;;;;;;5127778;28;19981;-70
2023/01/19 03:53:02;;;;;;;;;;;-3.30;99.90;;;;;;5127462;28;20234;-70
2023/01/19 03:55:29;;;;;;;;;;;-3.30;99.90;;;;;;5127341;28;19942;-70
2023/01/19 03:57:56;;;;;;;;;;;-3.30;99.90;;;;;;5126933;28;19920;-70
2023/01/19 04:00:23;;;;;;;;;;;-3.20;99.90;;;;;;5127471;28;19951;-70
2023/01/19 04:02:49;;;;;;;;;;;-3.20;99.90;;;;;;5119950;28;19927;-70
2023/01/19 04:05:17;;;;;;;;;;;-3.20;99.90;;;;;;5106877;28;19986;-70
2023/01/19 04:07:44;;;;;;;;;;;-3.10;99.90;;;;;;5121086;28;19955;-69
2023/01/19 04:10:11;;;;;;;;;;;-3.10;99.90;;;;;;5127359;28;19951;-70
2023/01/19 04:12:38;;;;;;;;;;;-3.10;99.90;;;;;;5126987;28;20170;-70
2023/01/19 04:15:06;;;;;;;;;;;-3.10;99.90;;;;;;5126822;28;20208;-70
2023/01/19 04:17:32;;;;;;;;;;;-3.10;99.90;;;;;;5126557;28;19920;-70
2023/01/19 04:19:59;;;;;;;;;;;-3.10;99.90;;;;;;5127100;28;20249;-70
2023/01/19 04:22:28;;;;;;;;;;;-3.10;99.90;;;;;;5126654;28;19951;-70
2023/01/19 04:24:54;;;;;;;;;;;-3.10;99.90;;;;;;5126945;28;19969;-70
2023/01/19 04:27:21;;;;;;;;;;;-3.10;99.90;;;;;;5126323;28;19990;-70
2023/01/19 04:29:48;;;;;;;;;;;-3.10;99.90;;;;;;5126715;28;19987;-70
2023/01/19 04:32:14;;;;;;;;;;;-3.10;99.90;;;;;;5126715;28;19926;-70
2023/01/19 04:34:41;;;;;;;;;;;-3.10;99.90;;;;;;5126495;28;20166;-70
2023/01/19 04:37:08;;;;;;;;;;;-3.10;99.90;;;;;;5126114;28;20394;-70
2023/01/19 04:39:36;;;;;;;;;;;-3.10;99.90;;;;;;5126640;28;19924;-70
2023/01/19 04:42:05;;;;;;;;;;;-3.10;99.90;;;;;;5124109;28;19991;-70
2023/01/19 04:44:31;;;;;;;;;;;-3.10;99.90;;;;;;5126545;28;19927;-70
2023/01/19 04:46:58;;;;;;;;;;;-3.10;99.90;;;;;;5125810;28;20173;-70
2023/01/19 04:49:24;;;;;;;;;;;-3.10;99.90;;;;;;5126536;28;19986;-70
2023/01/19 04:51:52;;;;;;;;;;;-3.00;99.90;;;;;;5123578;28;19999;-70
2023/01/19 04:54:19;;;;;;;;;;;-3.00;99.90;;;;;;5125870;28;19944;-70
2023/01/19 04:56:47;;;;;;;;;;;-3.00;99.90;;;;;;5125486;28;20173;-70
2023/01/19 04:59:13;;;;;;;;;;;-2.90;99.90;;;;;;5126283;28;19920;-70
2023/01/19 05:01:40;;;;;;;;;;;-3.00;99.90;;;;;;5125757;28;19920;-70
2023/01/19 05:04:07;;;;;;;;;;;-2.90;99.90;;;;;;5125728;28;19987;-70
2023/01/19 05:06:34;;;;;;;;;;;-3.00;99.90;;;;;;5125429;28;19919;-70
2023/01/19 05:09:00;;;;;;;;;;;-2.90;99.90;;;;;;5126105;28;19987;-70
2023/01/19 05:11:27;;;;;;;;;;;-2.90;99.90;;;;;;5126086;28;19982;-70
2023/01/19 05:13:55;;;;;;;;;;;-2.90;99.90;;;;;;5125588;28;19966;-70
2023/01/19 05:16:21;;;;;;;;;;;-2.90;99.90;;;;;;5125599;28;19920;-70
2023/01/19 05:18:48;;;;;;;;;;;-2.90;99.90;;;;;;5125818;28;19951;-70
2023/01/19 05:21:15;;;;;;;;;;;-2.80;99.90;;;;;;5125729;28;19927;-72
2023/01/19 05:23:41;;;;;;;;;;;-2.80;99.90;;;;;;5125426;28;20279;-69
2023/01/19 05:26:08;;;;;;;;;;;-2.80;99.90;;;;;;5124799;28;19950;-69
2023/01/19 05:28:36;;;;;;;;;;;-2.80;99.90;;;;;;5125635;28;19920;-70
2023/01/19 05:31:04;;;;;;;;;;;-2.80;99.90;;;;;;5125387;28;20204;-70
2023/01/19 05:33:30;;;;;;;;;;;-2.80;99.90;;;;;;5125066;28;20290;-70
2023/01/19 05:35:57;;;;;;;;;;;-2.80;99.90;;;;;;5124818;28;19959;-69
2023/01/19 05:38:24;;;;;;;;;;;-2.80;99.90;;;;;;5125286;28;19951;-69
2023/01/19 05:40:56;;;;;;;;;;;-2.80;99.90;;;;;;5125076;28;19926;-69
2023/01/19 05:43:24;;;;;;;;;;;-2.70;99.90;;;;;;5124790;28;19919;-70
2023/01/19 05:45:50;;;;;;;;;;;-2.70;99.90;;;;;;5124619;28;19920;-70
2023/01/19 05:48:18;;;;;;;;;;;-2.70;99.90;;;;;;5124987;28;19982;-70
2023/01/19 05:50:45;;;;;;;;;;;-2.70;99.90;;;;;;5125031;28;20208;-70
2023/01/19 05:53:12;;;;;;;;;;;-2.70;99.90;;;;;;5123731;28;19920;-69
2023/01/19 05:55:39;;;;;;;;;;;-2.70;99.90;;;;;;5124636;28;19920;-69
2023/01/19 05:58:06;;;;;;;;;;;-2.70;99.90;;;;;;5121889;28;20247;-69
2023/01/19 06:00:33;;;;;;;;;;;-2.70;99.90;;;;;;5124913;28;19926;-69
2023/01/19 06:03:00;;;;;;;;;;;-2.70;99.90;;;;;;5109751;28;19951;-69
2023/01/19 06:05:29;;;;;;;;;;;-2.70;99.90;;;;;;5125055;28;20182;-69
2023/01/19 06:07:56;;;;;;;;;;;-2.70;99.90;;;;;;5124005;28;19926;-69
2023/01/19 06:10:22;;;;;;;;;;;-2.60;99.90;;;;;;5124971;28;19920;-69
2023/01/19 06:12:50;;;;;;;;;;;-2.60;99.90;;;;;;5124413;28;19967;-69
2023/01/19 06:15:17;;;;;;;;;;;-2.60;99.90;;;;;;5124435;28;20208;-69
2023/01/19 06:17:43;;;;;;;;;;;-2.60;99.90;;;;;;5123803;28;20226;-70
2023/01/19 06:20:12;;;;;;;;;;;-2.60;99.90;;;;;;5124843;28;19920;-69
2023/01/19 06:22:40;;;;;;;;;;;-2.60;99.90;;;;;;5124518;28;19923;-68
2023/01/19 06:25:07;;;;;;;;;;;-2.60;99.90;;;;;;5124579;28;19920;-69
2023/01/19 06:27:35;;;;;;;;;;;-2.60;99.90;;;;;;5123466;28;19920;-69
2023/01/19 06:30:01;;;;;;;;;;;-2.60;99.90;;;;;;5124575;28;19958;-75
2023/01/19 06:32:29;;;;;;;;;;;-2.60;99.90;;;;;;5124416;28;20057;-70
2023/01/19 06:34:56;;;;;;;;;;;-2.60;99.90;;;;;;5124370;28;19928;-70
2023/01/19 06:37:25;;;;;;;;;;;-2.70;99.90;;;;;;5124002;28;19920;-70
2023/01/19 06:39:53;;;;;;;;;;;-2.70;99.90;;;;;;5124541;28;19920;-70
2023/01/19 06:42:20;;;;;;;;;;;-2.60;99.90;;;;;;5122555;28;19924;-69
2023/01/19 06:44:47;;;;;;;;;;;-2.60;99.90;;;;;;5121693;28;19920;-70
2023/01/19 06:47:14;;;;;;;;;;;-2.60;99.90;;;;;;5123805;28;19919;-70
2023/01/19 06:49:40;;;;;;;;;;;-2.60;99.90;;;;;;5124486;28;19991;-70
2023/01/19 06:52:08;;;;;;;;;;;-2.60;99.90;;;;;;5124345;28;19955;-70
2023/01/19 06:54:35;;;;;;;;;;;-2.60;99.90;;;;;;5124158;28;19983;-70
2023/01/19 06:57:03;;;;;;;;;;;-2.60;99.90;;;;;;5123483;28;19927;-70
2023/01/19 06:59:29;;;;;;;;;;;-2.60;99.90;;;;;;5124366;28;19999;-70
2023/01/19 07:01:56;;;;;;;;;;;-2.70;99.90;;;;;;5124362;28;19926;-70
2023/01/19 07:04:23;;;;;;;;;;;-2.70;99.90;;;;;;5124267;28;19920;-69
2023/01/19 07:06:49;;;;;;;;;;;-2.70;99.90;;;;;;5123081;28;19920;-70
2023/01/19 07:09:16;;;;;;;;;;;-2.70;99.90;;;;;;5124233;28;19994;-70
2023/01/19 07:11:43;;;;;;;;;;;-2.70;99.90;;;;;;5123336;28;19919;-69
2023/01/19 07:14:11;;;;;;;;;;;-2.70;99.90;;;;;;5123777;28;20153;-69
2023/01/19 07:16:38;;;;;;;;;;;-2.70;99.90;;;;;;5127402;28;19920;-70
2023/01/19 07:19:04;;;;;;;;;;;-2.80;99.90;;;;;;5108112;28;19983;-70
2023/01/19 07:21:31;;;;;;;;;;;-2.80;99.90;;;;;;5107928;28;19920;-69
2023/01/19 07:23:58;;;;;;;;;;;-2.80;99.90;;;;;;5107303;28;19927;-69
2023/01/19 07:26:26;;;;;;;;;;;-2.80;99.90;;;;;;5106730;28;19991;-70
2023/01/19 07:28:53;;;;;;;;;;;-2.90;99.90;;;;;;5107372;28;19920;-70
2023/01/19 07:31:21;;;;;;;;;;;-2.90;99.90;;;;;;5107553;28;20267;-70
2023/01/19 07:33:47;;;;;;;;;;;-2.90;99.90;;;;;;5107207;28;19920;-70
2023/01/19 07:36:14;;;;;;;;;;;-2.90;99.90;;;;;;5106847;28;19983;-70
2023/01/19 07:38:41;;;;;;;;;;;-2.90;99.90;;;;;;5107248;28;20231;-70
2023/01/19 07:41:09;;;;;;;;;;;-2.80;99.90;;;;;;5107433;28;19987;-70
2023/01/19 07:43:41;;;;;;;;;;;-2.80;99.90;;;;;;5104297;28;19920;-69
2023/01/19 07:46:08;;;;;;;;;;;-2.70;99.90;;;;;;5106749;28;19926;-69
2023/01/19 07:48:36;;;;;;;;;;;-2.60;99.90;;;;;;5106924;28;20170;-70
2023/01/19 07:51:07;;;;;;;;;;;-2.60;99.90;;;;;;5106920;28;19928;-69
2023/01/19 07:53:34;;;;;;;;;;;-2.50;99.90;;;;;;5106891;28;19963;-70
2023/01/19 07:56:00;;;;;;;;;;;-2.50;99.90;;;;;;5106604;28;19920;-69
2023/01/19 07:58:27;;;;;;;;;;;-2.40;99.90;;;;;;5106657;28;20226;-69
2023/01/19 08:00:53;;;;;;;;;;;-2.40;99.90;;;;;;5106820;28;19987;-70
2023/01/19 08:03:20;;;;;;;;;;;-2.30;99.90;;;;;;5106745;28;19951;-70
2023/01/19 08:05:51;;;;;;;;;;;-2.30;99.90;;;;;;5106373;28;19992;-70
2023/01/19 08:08:18;;;;;;;;;;;-2.30;99.90;;;;;;5106753;28;19958;-70
2023/01/19 08:10:45;;;;;;;;;;;-2.20;99.90;;;;;;5106825;28;19924;-70
2023/01/19 08:13:14;;;;;;;;;;;-2.20;99.90;;;;;;5104327;28;19924;-70
2023/01/19 08:15:41;;;;;;;;;;;-2.20;99.90;;;;;;5106487;28;19920;-70
2023/01/19 08:18:10;;;;;;;;;;;-2.20;99.90;;;;;;5106080;28;20232;-70
2023/01/19 08:20:37;;;;;;;;;;;-2.10;99.90;;;;;;5106743;28;19943;-69
2023/01/19 08:23:05;;;;;;;;;;;-2.10;99.90;;;;;;5103723;28;19983;-69
2023/01/19 08:25:32;;;;;;;;;;;-2.00;99.90;;;;;;5105712;28;19920;-70
2023/01/19 08:27:59;;;;;;;;;;;-2.00;99.90;;;;;;5105801;28;19920;-70
2023/01/19 08:30:26;;;;;;;;;;;-1.90;99.90;;;;;;5106221;28;20230;-69
2023/01/19 08:32:53;;;;;;;;;;;-1.90;99.90;;;;;;5106145;28;19920;-68
2023/01/19 08:35:21;;;;;;;;;;;-1.80;99.90;;;;;;5103750;28;19924;-69
2023/01/19 08:37:48;;;;;;;;;;;-1.80;99.90;;;;;;5105325;28;19920;-70
2023/01/19 08:40:17;;;;;;;;;;;-1.70;99.90;;;;;;5106034;28;19928;-70
2023/01/19 08:42:43;;;;;;;;;;;-1.60;99.90;;;;;;5106146;28;19920;-69
2023/01/19 08:45:10;;;;;;;;;;;-1.50;99.90;;;;;;5106144;28;19920;-69
2023/01/19 08:47:37;;;;;;;;;;;-1.50;99.90;;;;;;5112994;28;19920;-70
2023/01/19 08:50:04;;;;;;;;;;;-1.50;99.90;;;;;;5118356;28;19984;-68
2023/01/19 08:52:30;;;;;;;;;;;-1.40;99.90;;;;;;5115449;28;19920;-69
2023/01/19 08:54:57;;;;;;;;;;;-1.30;99.90;;;;;;5109674;28;19954;-69
2023/01/19 08:57:26;;;;;;;;;;;-1.20;99.90;;;;;;5105380;28;20178;-69
2023/01/19 08:59:53;;;;;;;;;;;-1.20;99.90;;;;;;5103710;28;19920;-70
2023/01/19 09:02:20;;;;;;;;;;;-1.10;99.90;;;;;;5105659;28;19983;-69
2023/01/19 09:04:46;;;;;;;;;;;-1.10;99.90;;;;;;5105941;28;19951;-69
2023/01/19 09:07:13;;;;;;;;;;;-1.00;99.90;;;;;;5104686;28;20231;-70
2023/01/19 09:09:42;;;;;;;;;;;-1.00;99.90;;;;;;5105195;28;19944;-70
2023/01/19 09:12:08;;;;;;;;;;;-1.00;99.90;;;;;;5105804;28;19920;-70
2023/01/19 09:14:37;;;;;;;;;;;-0.90;99.90;;;;;;5105316;28;19991;-70
2023/01/19 09:17:05;;;;;;;;;;;-0.90;99.90;;;;;;5104962;28;19951;-70
2023/01/19 09:19:31;;;;;;;;;;;-0.90;99.90;;;;;;5105333;28;19963;-69
2023/01/19 09:21:59;;;;;;;;;;;-0.90;99.90;;;;;;5105540;28;19983;-70
2023/01/19 09:24:25;;;;;;;;;;;-0.90;99.90;;;;;;5105192;28;19961;-70
2023/01/19 09:26:52;;;;;;;;;;;-0.80;99.90;;;;;;5104305;28;19948;-68
2023/01/19 09:29:19;;;;;;;;;;;-0.60;99.90;;;;;;5104935;28;19951;-70
2023/01/19 09:31:47;;;;;;;;;;;-0.60;99.90;;;;;;5105011;28;19920;-70
2023/01/19 09:34:14;;;;;;;;;;;-0.50;99.90;;;;;;5105188;28;19920;-70
2023/01/19 09:36:41;;;;;;;;;;;-0.50;99.90;;;;;;5104401;28;19920;-70
2023/01/19 09:39:08;;;;;;;;;;;-0.50;99.90;;;;;;5104115;28;20041;-70
2023/01/19 09:41:37;;;;;;;;;;;-0.40;99.90;;;;;;5105069;28;19978;-70
2023/01/19 09:44:04;;;;;;;;;;;-0.40;99.90;;;;;;5105045;28;19927;-70
2023/01/19 09:46:34;;;;;;;;;;;-0.30;99.90;;;;;;5104053;28;20267;-68
2023/01/19 09:49:05;;;;;;;;;;;-0.30;99.90;;;;;;5104692;28;19956;-70
2023/01/19 09:51:33;;;;;;;;;;;-0.30;99.90;;;;;;5105052;28;20219;-70
2023/01/19 09:54:04;;;;;;;;;;;-0.40;99.90;;;;;;5104481;28;19987;-70
2023/01/19 09:56:31;;;;;;;;;;;-0.30;99.90;;;;;;5103909;28;19927;-70
2023/01/19 09:58:59;;;;;;;;;;;-0.30;99.90;;;;;;5104956;28;19963;-70
2023/01/19 10:01:33;;;;;;;;;;;-0.40;99.90;;;;;;5104480;28;19926;-70
2023/01/19 10:04:18;;;;;;;;;;;-0.40;99.90;;;;;;5104724;28;19926;-70
2023/01/19 10:06:45;;;;;;;;;;;-0.30;99.90;;;;;;5103938;28;19979;-70
2023/01/19 10:09:17;;;;;;;;;;;-0.40;99.90;;;;;;5104448;28;19927;-69
2023/01/19 10:11:46;;;;;;;;;;;-0.30;99.90;;;;;;5104767;28;19928;-70
2023/01/19 10:14:16;;;;;;;;;;;-0.30;99.90;;;;;;5104255;28;19974;-70
2023/01/19 10:16:45;;;;;;;;;;;-0.30;99.90;;;;;;5103730;28;20123;-70
2023/01/19 10:19:21;;;;;;;;;;;-0.30;99.90;;;;;;5114608;28;19919;-69
2023/01/19 10:21:49;;;;;;;;;;;-0.30;99.90;;;;;;5124388;28;19920;-70
2023/01/19 10:24:18;;;;;;;;;;;-0.30;99.90;;;;;;5124692;28;19975;-70
2023/01/19 10:26:47;;;;;;;;;;;-0.30;99.90;;;;;;5123639;28;20212;-70
2023/01/19 10:29:20;;;;;;;;;;;-0.30;99.90;;;;;;5124749;28;19958;-70
2023/01/19 10:31:47;;;;;;;;;;;-0.30;99.90;;;;;;5124755;28;19987;-70
2023/01/19 10:34:17;;;;;;;;;;;-0.20;99.90;;;;;;5124368;28;19919;-70
2023/01/19 10:36:45;;;;;;;;;;;-0.10;99.90;;;;;;5123459;28;19926;-70
2023/01/19 10:39:14;;;;;;;;;;;0.00;99.90;;;;;;5124584;28;19986;-70
2023/01/19 10:41:42;;;;;;;;;;;-0.10;99.90;;;;;;5124436;28;20229;-69
2023/01/19 10:44:09;;;;;;;;;;;0.00;99.90;;;;;;5124419;28;20118;-69
2023/01/19 10:46:38;;;;;;;;;;;-0.10;99.90;;;;;;5123791;28;19924;-70
2023/01/19 10:49:05;;;;;;;;;;;-0.10;99.90;;;;;;5124173;28;19926;-69
2023/01/19 10:51:33;;;;;;;;;;;-0.20;99.90;;;;;;5124493;28;19991;-70
2023/01/19 10:54:01;;;;;;;;;;;-0.20;99.90;;;;;;5124176;28;19983;-69
2023/01/19 10:56:29;;;;;;;;;;;-0.20;99.90;;;;;;5123658;28;19955;-70
2023/01/19 10:58:57;;;;;;;;;;;-0.10;99.90;;;;;;5124163;28;20226;-69
2023/01/19 11:01:24;;;;;;;;;;;0.00;99.90;;;;;;5124376;28;19920;-69
2023/01/19 11:03:52;;;;;;;;;;;0.00;99.90;;;;;;5123987;28;19986;-69
2023/01/19 11:06:20;;;;;;;;;;;0.10;99.90;;;;;;5123229;28;19991;-70
2023/01/19 11:08:50;;;;;;;;;;;0.10;99.90;;;;;;5124362;28;19986;-70
2023/01/19 11:11:17;;;;;;;;;;;0.20;99.90;;;;;;5124342;28;20089;-70
2023/01/19 11:13:44;;;;;;;;;;;0.30;99.90;;;;;;5124237;28;19951;-70
2023/01/19 11:16:16;;;;;;;;;;;0.30;99.90;;;;;;5123021;28;19926;-70
2023/01/19 11:18:43;;;;;;;;;;;0.30;99.90;;;;;;5124070;28;20259;-69
2023/01/19 11:21:11;;;;;;;;;;;0.30;99.90;;;;;;5123849;28;19927;-68
2023/01/19 11:23:41;;;;;;;;;;;0.40;99.90;;;;;;5123719;28;19951;-69
2023/01/19 11:26:14;;;;;;;;;;;0.40;99.90;;;;;;5123397;28;19920;-70
2023/01/19 11:28:42;;;;;;;;;;;0.40;99.90;;;;;;5103461;28;20208;-70
2023/01/19 11:31:17;;;;;;;;;;;0.40;99.90;;;;;;5103508;28;19989;-70
2023/01/19 11:33:50;;;;;;;;;;;0.40;99.90;;;;;;5103537;28;19951;-70
2023/01/19 11:36:19;;;;;;;;;;;0.30;99.90;;;;;;5102870;28;19920;-70
2023/01/19 11:38:49;;;;;;;;;;;0.30;99.90;;;;;;5103734;28;19986;-70
2023/01/19 11:41:19;;;;;;;;;;;0.30;99.90;;;;;;5103723;28;19954;-70
2023/01/19 11:43:46;;;;;;;;;;;0.30;99.90;;;;;;5103609;28;19959;-70
2023/01/19 11:46:13;;;;;;;;;;;0.30;99.90;;;;;;5102718;28;19928;-70
2023/01/19 11:48:42;;;;;;;;;;;0.30;99.90;;;;;;5103204;28;19970;-70
2023/01/19 11:51:13;;;;;;;;;;;0.40;99.90;;;;;;5103330;28;19952;-70
2023/01/19 11:53:41;;;;;;;;;;;0.40;99.90;;;;;;5103395;28;19920;-70
2023/01/19 11:56:09;;;;;;;;;;;0.30;99.90;;;;;;5102687;28;19926;-70
2023/01/19 11:58:38;;;;;;;;;;;0.40;99.90;;;;;;5103131;28;19952;-70
2023/01/19 12:01:07;;;;;;;;;;;0.40;99.90;;;;;;5103996;28;19987;-70
2023/01/19 12:03:37;;;;;;;;;;;0.30;99.90;;;;;;5107017;28;19928;-70
2023/01/19 12:06:05;;;;;;;;;;;0.30;99.90;;;;;;5106071;28;19920;-69
2023/01/19 12:08:34;;;;;;;;;;;0.40;99.90;;;;;;5107108;28;20176;-69
2023/01/19 12:11:02;;;;;;;;;;;0.40;99.90;;;;;;5106882;28;19920;-70
2023/01/19 12:13:30;;;;;;;;;;;0.40;99.90;;;;;;5106708;28;19983;-69
2023/01/19 12:16:00;;;;;;;;;;;0.40;99.90;;;;;;5106279;28;19998;-69
2023/01/19 12:18:29;;;;;;;;;;;0.40;99.90;;;;;;5106355;28;19987;-70
2023/01/19 12:20:57;;;;;;;;;;;0.40;99.90;;;;;;5106766;28;19920;-70
2023/01/19 12:23:38;;;;;;;;;;;0.50;99.90;;;;;;5106401;28;19958;-70
2023/01/19 12:26:16;;;;;;;;;;;0.50;99.90;;;;;;5105978;28;19934;-70
2023/01/19 12:28:44;;;;;;;;;;;0.60;99.90;;;;;;5106665;28;19999;-69
2023/01/19 12:31:14;;;;;;;;;;;0.60;99.90;;;;;;5106298;28;19920;-70
2023/01/19 12:33:40;;;;;;;;;;;0.70;99.90;;;;;;5106196;28;20006;-70
2023/01/19 12:36:10;;;;;;;;;;;0.70;99.90;;;;;;5105650;28;19927;-70
2023/01/19 12:38:40;;;;;;;;;;;0.70;99.90;;;;;;5106166;28;19983;-70
2023/01/19 12:41:27;;;;;;;;;;;0.70;99.90;;;;;;5105031;28;19920;-70
2023/01/19 12:44:13;;;;;;;;;;;0.60;99.90;;;;;;5106107;28;19920;-70
2023/01/19 12:46:42;;;;;;;;;;;0.60;99.90;;;;;;5105194;28;20385;-70
2023/01/19 12:49:12;;;;;;;;;;;0.50;99.90;;;;;;5105858;28;20235;-70
2023/01/19 12:51:38;;;;;;;;;;;0.50;99.90;;;;;;5105423;28;19927;-69
2023/01/19 12:54:07;;;;;;;;;;;0.50;99.90;;;;;;5106099;28;19947;-70
2023/01/19 12:56:35;;;;;;;;;;;0.60;99.90;;;;;;5104948;28;19926;-70
2023/01/19 12:59:02;;;;;;;;;;;0.60;99.90;;;;;;5105682;28;19983;-70
2023/01/19 13:01:29;;;;;;;;;;;0.60;99.90;;;;;;5105649;28;19991;-70
2023/01/19 13:04:02;;;;;;;;;;;0.60;99.90;;;;;;5105597;28;19952;-70
2023/01/19 13:06:48;;;;;;;;;;;0.60;99.90;;;;;;5104766;28;19998;-70
2023/01/19 13:09:28;;;;;;;;;;;0.60;99.90;;;;;;5105653;28;19920;-69
2023/01/19 13:12:11;;;;;;;;;;;0.50;99.90;;;;;;5105408;28;19927;-70
2023/01/19 13:14:38;;;;;;;;;;;0.50;99.90;;;;;;5105364;28;19926;-70
2023/01/19 13:17:25;;;;;;;;;;;0.50;99.90;;;;;;5104709;28;19926;-70
2023/01/19 13:19:55;;;;;;;;;;;0.50;99.90;;;;;;5105387;28;19987;-70
2023/01/19 13:22:40;;;;;;;;;;;0.60;99.90;;;;;;5105625;28;19962;-70
2023/01/19 13:25:08;;;;;;;;;;;0.60;99.90;;;;;;5105052;28;19920;-69
2023/01/19 13:27:35;;;;;;;;;;;0.60;99.90;;;;;;5104806;28;19920;-70
2023/01/19 13:30:01;;;;;;;;;;;0.60;99.90;;;;;;5105215;28;20222;-70
2023/01/19 13:32:28;;;;;;;;;;;0.60;99.90;;;;;;5105376;28;19991;-70
2023/01/19 13:34:57;;;;;;;;;;;0.70;99.90;;;;;;5105202;28;19920;-70
2023/01/19 13:37:27;;;;;;;;;;;0.70;99.90;;;;;;5104601;28;19920;-70
2023/01/19 13:39:54;;;;;;;;;;;0.70;99.90;;;;;;5104943;28;19951;-70
2023/01/19 13:42:26;;;;;;;;;;;0.80;99.90;;;;;;5105213;28;19950;-70
2023/01/19 13:44:53;;;;;;;;;;;0.70;99.90;;;;;;5118277;28;20212;-68
2023/01/19 13:47:21;;;;;;;;;;;0.80;99.90;;;;;;5109314;28;19951;-69
2023/01/19 13:49:51;;;;;;;;;;;0.80;99.90;;;;;;5118746;28;20104;-69
2023/01/19 13:52:21;;;;;;;;;;;0.80;99.90;;;;;;5111270;28;20231;-69
2023/01/19 13:54:49;;;;;;;;;;;0.80;99.90;;;;;;5112109;28;19947;-69
2023/01/19 13:57:22;;;;;;;;;;;0.80;99.90;;;;;;5103854;28;19952;-70
2023/01/19 14:00:00;;;;;;;;;;;0.80;99.90;;;;;;5104896;28;19926;-70
2023/01/19 14:02:27;;;;;;;;;;;0.80;99.90;;;;;;5104040;28;19976;-69
2023/01/19 14:04:56;;;;;;;;;;;0.80;99.90;;;;;;5104271;28;19979;-70
2023/01/19 14:07:25;;;;;;;;;;;0.80;99.90;;;;;;5104022;28;19927;-69
2023/01/19 14:10:01;;;;;;;;;;;0.80;99.90;;;;;;5104592;28;19962;-69
2023/01/19 14:12:28;;;;;;;;;;;0.80;99.90;;;;;;5104513;28;19979;-69
2023/01/19 14:14:55;;;;;;;;;;;0.80;99.90;;;;;;5104427;28;19951;-70
2023/01/19 14:17:22;;;;;;;;;;;0.80;99.90;;;;;;5103596;28;19956;-70
2023/01/19 14:19:49;;;;;;;;;;;0.80;99.90;;;;;;5104334;28;19927;-70
2023/01/19 14:22:16;;;;;;;;;;;0.80;99.90;;;;;;5103861;28;19962;-69
2023/01/19 14:24:44;;;;;;;;;;;0.70;99.90;;;;;;5103792;28;20160;-69
2023/01/19 14:27:18;;;;;;;;;;;0.70;99.90;;;;;;5103808;28;19983;-70
2023/01/19 14:29:46;;;;;;;;;;;0.70;99.90;;;;;;5104225;28;19920;-70
2023/01/19 14:32:14;;;;;;;;;;;0.70;99.90;;;;;;5104291;28;19979;-69
2023/01/19 14:34:42;;;;;;;;;;;0.70;99.90;;;;;;5103805;28;20449;-69
2023/01/19 14:37:15;;;;;;;;;;;0.70;99.90;;;;;;5103592;28;19955;-69
2023/01/19 14:39:45;;;;;;;;;;;0.70;99.90;;;;;;5103962;28;20188;-68